createdAt,value
2018-06-02T00:00:54.260Z,0
2018-06-02T00:01:54.015Z,0
2018-06-02T00:02:54.338Z,0
2018-06-02T00:04:23.643Z,0
2018-06-02T00:04:54.391Z,0
2018-06-02T00:06:08.804Z,0
2018-06-02T00:06:54.144Z,0
2018-06-02T00:07:54.192Z,0
2018-06-02T00:09:09.110Z,0
2018-06-02T00:09:54.243Z,0
2018-06-02T00:10:54.232Z,0
2018-06-02T00:11:54.041Z,0
2018-06-02T00:12:54.573Z,0
2018-06-02T00:13:54.601Z,0
2018-06-02T00:14:54.344Z,0
2018-06-02T00:15:54.627Z,0
2018-06-02T00:16:54.426Z,0
2018-06-02T00:17:54.720Z,0
2018-06-02T00:18:54.750Z,0
2018-06-02T00:20:09.124Z,0
2018-06-02T00:20:54.264Z,0
2018-06-02T00:21:54.790Z,0
2018-06-02T00:22:54.817Z,0
2018-06-02T00:23:54.867Z,0
2018-06-02T00:24:54.843Z,0
2018-06-02T00:26:09.548Z,0
2018-06-02T00:26:54.932Z,0
2018-06-02T00:27:54.955Z,0
2018-06-02T00:28:54.469Z,0
2018-06-02T00:29:54.983Z,0
2018-06-02T00:30:54.768Z,0
2018-06-02T00:31:55.021Z,0
2018-06-02T00:32:55.132Z,0
2018-06-02T00:33:55.092Z,0
2018-06-02T00:36:55.150Z,0
2018-06-02T00:37:55.206Z,0
2018-06-02T00:39:09.862Z,0
2018-06-02T00:39:54.996Z,0
2018-06-02T00:41:55.054Z,0
2018-06-02T00:42:55.337Z,0
2018-06-02T00:44:09.988Z,0
2018-06-02T00:45:10.038Z,0
2018-06-02T00:45:55.109Z,0
2018-06-02T00:46:55.159Z,0
2018-06-02T00:47:55.442Z,0
2018-06-02T00:48:55.500Z,0
2018-06-02T00:49:55.223Z,0
2018-06-02T00:51:10.197Z,0
2018-06-02T00:52:10.187Z,0
2018-06-02T00:52:55.594Z,0
2018-06-02T00:54:10.247Z,0
2018-06-02T00:54:55.641Z,0
2018-06-02T00:56:10.334Z,0
2018-06-02T00:56:55.390Z,0
2018-06-02T00:57:55.451Z,0
2018-06-02T00:59:10.363Z,0
2018-06-02T00:59:55.787Z,0
2018-06-02T01:00:55.785Z,0
2018-06-02T01:01:55.818Z,0
2018-06-02T01:02:55.796Z,0
2018-06-02T01:03:55.846Z,0
2018-06-02T01:04:55.867Z,0
2018-06-02T01:05:55.917Z,0
2018-06-02T01:06:55.678Z,0
2018-06-02T01:07:55.937Z,0
2018-06-02T01:09:55.975Z,0
2018-06-02T01:10:56.040Z,0
2018-06-02T01:12:10.687Z,0
2018-06-02T01:13:10.739Z,0
2018-06-02T01:13:56.156Z,0
2018-06-02T01:14:56.125Z,0
2018-06-02T01:15:56.139Z,0
2018-06-02T01:17:10.844Z,0
2018-06-02T01:18:10.832Z,0
2018-06-02T01:19:10.625Z,0
2018-06-02T01:20:10.890Z,0
2018-06-02T01:20:56.473Z,0
2018-06-02T01:23:10.706Z,0
2018-06-02T01:23:55.839Z,0
2018-06-02T01:24:56.376Z,0
2018-06-02T01:26:11.050Z,0
2018-06-02T01:26:56.412Z,0
2018-06-02T01:28:56.496Z,0
2018-06-02T01:29:56.480Z,0
2018-06-02T01:30:56.278Z,0
2018-06-02T01:32:11.197Z,0
2018-06-02T01:32:56.580Z,0
2018-06-02T01:33:56.568Z,0
2018-06-02T01:36:11.056Z,0
2018-06-02T01:36:56.653Z,0
2018-06-02T01:37:56.460Z,0
2018-06-02T01:39:26.034Z,0
2018-06-02T01:40:56.518Z,0
2018-06-02T01:41:56.511Z,0
2018-06-02T01:43:56.823Z,0
2018-06-02T01:45:56.874Z,0
2018-06-02T01:46:56.928Z,0
2018-06-02T01:47:56.954Z,0
2018-06-02T01:48:56.995Z,0
2018-06-02T01:50:11.633Z,0
2018-06-02T01:51:56.766Z,0
2018-06-02T01:52:57.064Z,0
2018-06-02T01:53:57.135Z,0
2018-06-02T01:55:11.790Z,0
2018-06-02T01:56:11.546Z,0
2018-06-02T01:56:57.148Z,0
2018-06-02T01:57:57.208Z,0
2018-06-02T01:58:56.980Z,0
2018-06-02T01:59:57.252Z,0
2018-06-02T02:00:57.243Z,0
2018-06-02T02:01:57.313Z,0
2018-06-02T02:02:57.332Z,0
2018-06-02T02:03:57.354Z,0
2018-06-02T02:04:57.341Z,0
2018-06-02T02:06:11.510Z,0
2018-06-02T02:06:57.437Z,0
2018-06-02T02:07:57.433Z,0
2018-06-02T02:08:57.543Z,4
2018-06-02T02:09:57.477Z,4
2018-06-02T02:11:12.183Z,4
2018-06-02T02:11:57.261Z,0
2018-06-02T02:12:57.323Z,4
2018-06-02T02:13:57.574Z,4
2018-06-02T02:15:57.615Z,4
2018-06-02T02:16:57.677Z,4
2018-06-02T02:17:57.683Z,8
2018-06-02T02:18:57.737Z,4
2018-06-02T02:19:57.756Z,8
2018-06-02T02:20:57.495Z,8
2018-06-02T02:21:57.527Z,8
2018-06-02T02:22:57.272Z,8
2018-06-02T02:23:57.858Z,12
2018-06-02T02:24:57.865Z,12
2018-06-02T02:26:12.558Z,12
2018-06-02T02:26:57.904Z,12
2018-06-02T02:27:57.966Z,20
2018-06-02T02:28:57.938Z,16
2018-06-02T02:29:57.988Z,20
2018-06-02T02:30:58.012Z,24
2018-06-02T02:31:58.066Z,24
2018-06-02T02:32:57.829Z,32
2018-06-02T02:33:58.076Z,32
2018-06-02T02:34:58.133Z,36
2018-06-02T02:35:58.150Z,40
2018-06-02T02:36:58.190Z,44
2018-06-02T02:37:57.913Z,48
2018-06-02T02:39:57.980Z,60
2018-06-02T02:40:57.736Z,64
2018-06-02T02:41:58.319Z,72
2018-06-02T02:42:58.329Z,76
2018-06-02T02:43:58.075Z,84
2018-06-02T02:44:58.407Z,92
2018-06-02T02:45:58.365Z,100
2018-06-02T02:46:58.445Z,104
2018-06-02T02:48:13.080Z,116
2018-06-02T02:48:58.491Z,120
2018-06-02T02:49:58.485Z,132
2018-06-02T02:50:58.535Z,140
2018-06-02T02:52:13.172Z,152
2018-06-02T02:52:58.550Z,160
2018-06-02T02:53:58.332Z,176
2018-06-02T02:54:58.618Z,192
2018-06-02T02:55:58.664Z,200
2018-06-02T02:56:58.748Z,216
2018-06-02T02:58:13.353Z,228
2018-06-02T02:59:13.347Z,244
2018-06-02T02:59:58.788Z,248
2018-06-02T03:00:58.767Z,256
2018-06-02T03:01:58.810Z,260
2018-06-02T03:02:58.833Z,260
2018-06-02T03:03:58.589Z,264
2018-06-02T03:04:58.850Z,268
2018-06-02T03:05:58.640Z,276
2018-06-02T03:06:58.905Z,284
2018-06-02T03:07:58.794Z,292
2018-06-02T03:09:13.600Z,300
2018-06-02T03:09:58.997Z,304
2018-06-02T03:10:58.998Z,308
2018-06-02T03:11:58.789Z,312
2018-06-02T03:12:59.067Z,316
2018-06-02T03:14:13.739Z,324
2018-06-02T03:15:13.760Z,332
2018-06-02T03:16:58.911Z,348
2018-06-02T03:18:58.969Z,356
2018-06-02T03:19:59.414Z,356
2018-06-02T03:21:13.923Z,356
2018-06-02T03:21:59.258Z,356
2018-06-02T03:22:59.339Z,356
2018-06-02T03:23:59.320Z,348
2018-06-02T03:24:59.377Z,344
2018-06-02T03:25:59.101Z,348
2018-06-02T03:26:59.401Z,348
2018-06-02T03:27:59.418Z,352
2018-06-02T03:28:59.214Z,360
2018-06-02T03:30:14.151Z,376
2018-06-02T03:30:59.491Z,388
2018-06-02T03:31:59.284Z,404
2018-06-02T03:32:59.277Z,420
2018-06-02T03:33:59.061Z,432
2018-06-02T03:34:59.080Z,448
2018-06-02T03:35:59.096Z,464
2018-06-02T03:36:59.631Z,480
2018-06-02T03:37:59.697Z,500
2018-06-02T03:38:59.699Z,520
2018-06-02T03:41:14.407Z,556
2018-06-02T03:41:59.532Z,564
2018-06-02T03:42:59.524Z,576
2018-06-02T03:43:59.822Z,592
2018-06-02T03:44:59.864Z,608
2018-06-02T03:46:59.924Z,648
2018-06-02T03:47:59.918Z,672
2018-06-02T03:48:59.972Z,704
2018-06-02T03:49:59.703Z,740
2018-06-02T03:50:59.739Z,776
2018-06-02T03:52:00.020Z,820
2018-06-02T03:53:00.074Z,864
2018-06-02T03:54:00.093Z,912
2018-06-02T03:55:00.098Z,964
2018-06-02T03:55:59.595Z,1020
2018-06-02T03:57:00.127Z,1080
2018-06-02T03:58:00.296Z,1144
2018-06-02T03:59:00.197Z,1208
2018-06-02T03:59:59.961Z,1268
2018-06-02T04:01:14.923Z,1348
2018-06-02T04:02:00.254Z,1392
2018-06-02T04:03:00.326Z,1452
2018-06-02T04:04:00.362Z,1512
2018-06-02T04:06:00.125Z,1620
2018-06-02T04:07:00.397Z,1668
2018-06-02T04:08:00.448Z,1700
2018-06-02T04:09:15.090Z,1720
2018-06-02T04:10:00.240Z,1736
2018-06-02T04:11:15.173Z,1752
2018-06-02T04:12:00.504Z,1756
2018-06-02T04:13:00.588Z,1748
2018-06-02T04:14:00.310Z,1740
2018-06-02T04:15:00.345Z,1704
2018-06-02T04:16:00.822Z,1672
2018-06-02T04:17:00.420Z,1644
2018-06-02T04:18:00.700Z,1628
2018-06-02T04:19:00.718Z,1624
2018-06-02T04:20:00.710Z,1620
2018-06-02T04:21:00.742Z,1624
2018-06-02T04:22:00.532Z,1644
2018-06-02T04:23:00.539Z,1672
2018-06-02T04:24:00.588Z,1712
2018-06-02T04:25:00.831Z,1756
2018-06-02T04:26:01.000Z,1800
2018-06-02T04:27:00.899Z,1840
2018-06-02T04:28:00.922Z,1872
2018-06-02T04:29:00.975Z,1892
2018-06-02T04:30:00.978Z,1908
2018-06-02T04:31:00.731Z,1928
2018-06-02T04:32:00.773Z,1948
2018-06-02T04:33:15.710Z,1968
2018-06-02T04:35:01.100Z,1968
2018-06-02T04:36:15.804Z,1980
2018-06-02T04:37:01.133Z,1992
2018-06-02T04:38:01.159Z,2004
2018-06-02T04:39:01.223Z,2008
2018-06-02T04:40:00.976Z,2012
2018-06-02T04:41:00.760Z,2008
2018-06-02T04:42:01.261Z,2004
2018-06-02T04:43:01.317Z,2004
2018-06-02T04:44:01.413Z,1992
2018-06-02T04:45:01.381Z,1988
2018-06-02T04:46:01.371Z,1984
2018-06-02T04:47:01.433Z,1988
2018-06-02T04:49:16.112Z,1980
2018-06-02T04:50:15.872Z,1968
2018-06-02T04:51:01.488Z,1964
2018-06-02T04:52:01.541Z,1956
2018-06-02T04:53:01.024Z,1956
2018-06-02T04:54:15.996Z,1960
2018-06-02T04:55:01.334Z,1968
2018-06-02T04:56:01.660Z,1968
2018-06-02T04:57:01.518Z,1972
2018-06-02T04:58:01.707Z,1976
2018-06-02T04:59:01.696Z,1972
2018-06-02T05:00:16.451Z,1964
2018-06-02T05:01:01.736Z,1960
2018-06-02T05:02:01.763Z,1964
2018-06-02T05:03:16.487Z,1964
2018-06-02T05:04:01.836Z,1972
2018-06-02T05:05:16.004Z,1988
2018-06-02T05:06:16.016Z,2000
2018-06-02T05:07:01.659Z,2012
2018-06-02T05:08:01.914Z,2032
2018-06-02T05:10:16.657Z,2068
2018-06-02T05:11:16.653Z,2084
2018-06-02T05:12:02.075Z,2100
2018-06-02T05:13:02.072Z,2128
2018-06-02T05:14:16.787Z,2172
2018-06-02T05:15:02.104Z,2196
2018-06-02T05:16:16.775Z,2240
2018-06-02T05:17:02.196Z,2264
2018-06-02T05:18:01.913Z,2296
2018-06-02T05:19:02.238Z,2320
2018-06-02T05:20:16.899Z,2356
2018-06-02T05:21:31.569Z,2384
2018-06-02T05:22:02.302Z,2396
2018-06-02T05:23:16.974Z,2416
2018-06-02T05:25:02.113Z,2452
2018-06-02T05:26:02.373Z,2480
2018-06-02T05:27:02.405Z,2512
2018-06-02T05:28:16.847Z,2564
2018-06-02T05:29:02.470Z,2592
2018-06-02T05:30:02.255Z,2636
2018-06-02T05:31:02.517Z,2680
2018-06-02T05:32:02.571Z,2716
2018-06-02T05:33:02.285Z,2748
2018-06-02T05:34:02.588Z,2784
2018-06-02T05:35:02.619Z,2808
2018-06-02T05:36:17.073Z,2828
2018-06-02T05:37:02.435Z,2852
2018-06-02T05:38:02.681Z,2884
2018-06-02T05:39:17.393Z,2920
2018-06-02T05:40:02.467Z,2952
2018-06-02T05:41:02.516Z,2988
2018-06-02T05:42:02.516Z,3028
2018-06-02T05:43:17.490Z,3072
2018-06-02T05:44:02.881Z,3092
2018-06-02T05:46:03.146Z,3124
2018-06-02T05:47:02.902Z,3144
2018-06-02T05:48:02.978Z,3136
2018-06-02T05:49:02.957Z,3156
2018-06-02T05:50:03.004Z,3172
2018-06-02T05:51:02.509Z,3204
2018-06-02T05:52:03.027Z,3204
2018-06-02T05:54:03.121Z,3280
2018-06-02T05:55:03.127Z,3300
2018-06-02T05:56:03.141Z,3340
2018-06-02T05:57:03.161Z,3396
2018-06-02T05:58:17.873Z,3468
2018-06-02T05:59:02.951Z,3508
2018-06-02T06:01:03.031Z,3560
2018-06-02T06:02:03.051Z,3584
2018-06-02T06:03:18.074Z,3644
2018-06-02T06:04:03.077Z,3692
2018-06-02T06:05:03.406Z,3736
2018-06-02T06:06:03.174Z,3792
2018-06-02T06:07:03.456Z,3836
2018-06-02T06:08:17.837Z,3840
2018-06-02T06:09:03.516Z,3872
2018-06-02T06:10:03.489Z,3912
2018-06-02T06:11:03.274Z,3940
2018-06-02T06:12:03.292Z,3980
2018-06-02T06:13:03.627Z,4040
2018-06-02T06:14:03.636Z,4104
2018-06-02T06:15:03.369Z,4168
2018-06-02T06:16:03.684Z,4248
2018-06-02T06:17:03.704Z,4328
2018-06-02T06:18:03.430Z,4380
2018-06-02T06:19:18.407Z,4464
2018-06-02T06:20:03.484Z,4504
2018-06-02T06:21:03.785Z,4556
2018-06-02T06:22:03.809Z,4592
2018-06-02T06:23:03.338Z,4632
2018-06-02T06:24:18.276Z,4680
2018-06-02T06:25:18.537Z,4708
2018-06-02T06:26:03.952Z,4728
2018-06-02T06:28:03.952Z,4568
2018-06-02T06:29:03.739Z,4456
2018-06-02T06:30:03.769Z,4456
2018-06-02T06:31:03.541Z,4636
2018-06-02T06:32:03.543Z,4840
2018-06-02T06:33:04.505Z,4948
2018-06-02T06:34:18.762Z,5076
2018-06-02T06:35:03.898Z,5284
2018-06-02T06:36:03.893Z,5624
2018-06-02T06:37:03.965Z,5788
2018-06-02T06:38:04.237Z,5988
2018-06-02T06:39:04.084Z,6128
2018-06-02T06:40:18.660Z,6392
2018-06-02T06:41:04.023Z,6500
2018-06-02T06:42:03.821Z,6648
2018-06-02T06:44:19.049Z,6776
2018-06-02T06:45:19.053Z,6736
2018-06-02T06:46:04.177Z,6704
2018-06-02T06:47:04.306Z,6568
2018-06-02T06:48:04.245Z,6496
2018-06-02T06:49:04.239Z,6636
2018-06-02T06:50:04.282Z,6768
2018-06-02T06:51:04.542Z,6964
2018-06-02T06:53:04.096Z,7448
2018-06-02T06:54:04.138Z,7748
2018-06-02T06:56:19.338Z,8740
2018-06-02T06:57:03.939Z,9088
2018-06-02T06:58:03.970Z,9500
2018-06-02T06:59:04.763Z,10008
2018-06-02T07:00:19.473Z,10740
2018-06-02T07:01:04.823Z,11256
2018-06-02T07:02:04.846Z,11860
2018-06-02T07:03:04.872Z,12676
2018-06-02T07:04:04.663Z,13796
2018-06-02T07:05:04.951Z,14496
2018-06-02T07:06:04.692Z,15384
2018-06-02T07:07:19.647Z,18016
2018-06-02T07:08:04.734Z,34080
2018-06-02T07:09:04.530Z,32576
2018-06-02T07:10:05.049Z,20640
2018-06-02T07:11:19.762Z,24992
2018-06-02T07:12:05.392Z,23040
2018-06-02T07:13:04.625Z,28864
2018-06-02T07:14:05.188Z,40256
2018-06-02T07:15:04.961Z,29344
2018-06-02T07:16:04.693Z,31744
2018-06-02T07:17:19.919Z,43520
2018-06-02T07:18:05.260Z,32672
2018-06-02T07:19:19.703Z,29760
2018-06-02T07:20:05.087Z,26496
2018-06-02T07:21:05.399Z,19232
2018-06-02T07:22:05.421Z,29248
2018-06-02T07:23:05.159Z,26912
2018-06-02T07:24:05.492Z,23808
2018-06-02T07:25:05.456Z,24576
2018-06-02T07:26:05.527Z,27424
2018-06-02T07:27:05.538Z,52288
2018-06-02T07:28:05.160Z,33312
2018-06-02T07:29:05.669Z,60352
2018-06-02T07:30:05.382Z,61280
2018-06-02T07:31:05.370Z,62304
2018-06-02T07:32:20.326Z,51520
2018-06-02T07:33:05.730Z,45760
2018-06-02T07:34:05.743Z,50688
2018-06-02T07:35:20.444Z,56576
2018-06-02T07:36:20.471Z,56160
2018-06-02T07:37:20.488Z,54592
2018-06-02T07:38:05.594Z,51328
2018-06-02T07:39:20.302Z,39808
2018-06-02T07:40:05.700Z,36096
2018-06-02T07:41:05.716Z,27040
2018-06-02T07:42:05.706Z,28768
2018-06-02T07:43:20.416Z,26272
2018-06-02T07:44:20.534Z,31776
2018-06-02T07:45:05.850Z,31200
2018-06-02T07:46:06.137Z,37152
2018-06-02T07:47:06.131Z,52896
2018-06-02T07:48:05.921Z,50944
2018-06-02T07:49:06.193Z,39584
2018-06-02T07:50:06.293Z,43936
2018-06-02T07:51:05.742Z,47392
2018-06-02T07:52:06.335Z,41088
2018-06-02T07:53:06.068Z,40192
2018-06-02T07:54:05.869Z,43616
2018-06-02T07:55:06.385Z,49984
2018-06-02T07:56:06.441Z,45024
2018-06-02T07:57:06.202Z,31488
2018-06-02T07:58:06.258Z,30944
2018-06-02T07:59:20.939Z,49536
2018-06-02T08:00:06.554Z,47776
2018-06-02T08:01:06.337Z,36416
2018-06-02T08:02:06.610Z,25248
2018-06-02T08:03:06.691Z,30304
2018-06-02T08:04:21.337Z,57984
2018-06-02T08:05:06.483Z,60416
2018-06-02T08:06:06.496Z,40032
2018-06-02T08:07:06.566Z,30400
2018-06-02T08:08:06.591Z,59168
2018-06-02T08:09:06.873Z,60544
2018-06-02T08:10:06.372Z,42816
2018-06-02T08:11:06.913Z,41376
2018-06-02T08:12:06.677Z,32256
2018-06-02T08:13:07.013Z,36064
2018-06-02T08:14:07.019Z,33024
2018-06-02T08:15:21.723Z,28224
2018-06-02T08:16:07.077Z,31136
2018-06-02T08:17:06.882Z,37888
2018-06-02T08:19:21.839Z,36640
2018-06-02T08:20:22.081Z,38592
2018-06-02T08:21:07.123Z,36576
2018-06-02T08:22:06.779Z,39872
2018-06-02T08:23:07.307Z,37024
2018-06-02T08:24:07.101Z,42528
2018-06-02T08:25:07.385Z,28704
2018-06-02T08:26:21.798Z,39296
2018-06-02T08:27:07.204Z,33760
2018-06-02T08:28:07.491Z,35904
2018-06-02T08:29:07.016Z,30656
2018-06-02T08:30:21.933Z,17696
2018-06-02T08:31:22.256Z,16060
2018-06-02T08:32:07.346Z,19104
2018-06-02T08:33:07.670Z,19200
2018-06-02T08:34:07.422Z,17216
2018-06-02T08:35:06.927Z,15376
2018-06-02T08:36:07.469Z,13176
2018-06-02T08:37:07.795Z,11816
2018-06-02T08:38:07.805Z,9668
2018-06-02T08:39:07.746Z,8176
2018-06-02T08:40:07.881Z,7304
2018-06-02T08:42:07.665Z,7656
2018-06-02T08:43:07.433Z,8616
2018-06-02T08:44:08.020Z,10136
2018-06-02T08:45:08.029Z,10740
2018-06-02T08:46:22.734Z,10024
2018-06-02T08:47:22.503Z,9728
2018-06-02T08:48:08.118Z,9660
2018-06-02T08:49:08.195Z,9444
2018-06-02T08:50:07.682Z,8840
2018-06-02T08:51:08.217Z,8212
2018-06-02T08:52:22.916Z,7400
2018-06-02T08:53:08.279Z,6872
2018-06-02T08:54:08.337Z,6224
2018-06-02T08:55:08.068Z,6152
2018-06-02T08:56:07.873Z,6780
2018-06-02T08:57:08.414Z,7868
2018-06-02T08:58:08.190Z,8960
2018-06-02T09:00:08.094Z,11296
2018-06-02T09:01:07.995Z,12244
2018-06-02T09:02:08.311Z,13808
2018-06-02T09:03:08.350Z,15016
2018-06-02T09:04:08.649Z,15200
2018-06-02T09:06:22.822Z,16136
2018-06-02T09:07:23.379Z,17504
2018-06-02T09:08:08.463Z,18048
2018-06-02T09:09:08.793Z,19008
2018-06-02T09:10:08.525Z,19360
2018-06-02T09:11:08.583Z,19008
2018-06-02T09:12:08.840Z,18944
2018-06-02T09:13:08.914Z,19136
2018-06-02T09:14:08.932Z,19104
2018-06-02T09:15:08.959Z,18976
2018-06-02T09:16:08.713Z,18528
2018-06-02T09:17:08.473Z,17984
2018-06-02T09:18:23.709Z,17760
2018-06-02T09:19:09.068Z,18272
2018-06-02T09:20:08.873Z,19392
2018-06-02T09:21:09.116Z,19168
2018-06-02T09:22:08.653Z,17856
2018-06-02T09:23:08.910Z,16532
2018-06-02T09:24:09.252Z,15004
2018-06-02T09:25:08.973Z,13496
2018-06-02T09:26:09.301Z,12108
2018-06-02T09:27:09.052Z,10656
2018-06-02T09:28:08.827Z,9540
2018-06-02T09:29:08.870Z,9208
2018-06-02T09:30:23.814Z,9116
2018-06-02T09:31:09.164Z,9064
2018-06-02T09:32:09.485Z,9120
2018-06-02T09:33:08.699Z,9556
2018-06-02T09:34:24.024Z,9792
2018-06-02T09:35:24.059Z,10092
2018-06-02T09:36:09.600Z,10728
2018-06-02T09:37:09.639Z,11568
2018-06-02T09:38:09.375Z,12088
2018-06-02T09:39:09.418Z,12736
2018-06-02T09:40:09.691Z,13480
2018-06-02T09:42:09.747Z,14624
2018-06-02T09:43:09.558Z,14996
2018-06-02T09:44:09.836Z,14572
2018-06-02T09:45:09.867Z,14292
2018-06-02T09:46:09.883Z,13464
2018-06-02T09:47:09.896Z,12348
2018-06-02T09:48:09.707Z,11656
2018-06-02T09:49:09.457Z,11512
2018-06-02T09:50:24.681Z,11712
2018-06-02T09:51:10.037Z,12108
2018-06-02T09:53:10.078Z,11360
2018-06-02T09:54:24.801Z,11220
2018-06-02T09:55:10.044Z,11624
2018-06-02T09:56:24.859Z,12308
2018-06-02T09:57:10.196Z,12696
2018-06-02T09:58:24.887Z,13520
2018-06-02T09:59:10.033Z,13996
2018-06-02T10:00:10.315Z,14284
2018-06-02T10:01:24.747Z,14152
2018-06-02T10:02:10.361Z,13932
2018-06-02T10:03:10.421Z,13336
2018-06-02T10:04:10.514Z,12700
2018-06-02T10:05:25.100Z,11488
2018-06-02T10:06:25.163Z,10248
2018-06-02T10:07:10.516Z,9196
2018-06-02T10:08:10.573Z,8000
2018-06-02T10:09:10.315Z,7080
2018-06-02T10:10:10.368Z,6384
2018-06-02T10:12:10.658Z,5840
2018-06-02T10:13:10.441Z,5812
2018-06-02T10:14:10.745Z,5316
2018-06-02T10:15:25.169Z,4264
2018-06-02T10:16:25.427Z,3980
2018-06-02T10:17:10.843Z,3724
2018-06-02T10:18:10.570Z,3364
2018-06-02T10:19:25.542Z,3268
2018-06-02T10:20:10.912Z,3312
2018-06-02T10:21:25.597Z,3404
2018-06-02T10:23:11.005Z,3640
2018-06-02T10:24:10.742Z,3744
2018-06-02T10:25:10.812Z,3928
2018-06-02T10:26:10.830Z,4064
2018-06-02T10:27:11.120Z,4100
2018-06-02T10:28:10.858Z,3880
2018-06-02T10:29:10.899Z,3412
2018-06-02T10:30:25.863Z,2984
2018-06-02T10:31:11.225Z,2844
2018-06-02T10:32:11.015Z,2692
2018-06-02T10:33:11.261Z,2572
2018-06-02T10:34:11.334Z,2444
2018-06-02T10:35:11.339Z,2320
2018-06-02T10:36:11.365Z,2256
2018-06-02T10:37:11.164Z,2180
2018-06-02T10:38:11.463Z,2176
2018-06-02T10:39:11.457Z,2208
2018-06-02T10:40:10.968Z,2284
2018-06-02T10:41:11.264Z,2408
2018-06-02T10:42:11.307Z,2524
2018-06-02T10:43:11.551Z,2612
2018-06-02T10:44:11.613Z,2644
2018-06-02T10:45:11.601Z,2628
2018-06-02T10:46:11.690Z,2688
2018-06-02T10:47:11.416Z,2820
2018-06-02T10:48:11.714Z,3000
2018-06-02T10:49:11.486Z,3192
2018-06-02T10:50:11.743Z,3384
2018-06-02T10:51:26.472Z,3532
2018-06-02T10:52:11.843Z,3628
2018-06-02T10:53:26.496Z,3544
2018-06-02T10:54:26.599Z,3312
2018-06-02T10:55:11.916Z,3188
2018-06-02T10:56:11.685Z,3140
2018-06-02T10:57:11.944Z,3016
2018-06-02T10:58:26.717Z,2812
2018-06-02T10:59:26.699Z,2660
2018-06-02T11:00:11.773Z,2612
2018-06-02T11:01:12.081Z,2620
2018-06-02T11:02:26.752Z,2680
2018-06-02T11:03:12.149Z,2732
2018-06-02T11:04:11.623Z,2772
2018-06-02T11:05:11.948Z,2876
2018-06-02T11:06:11.962Z,3000
2018-06-02T11:07:12.005Z,3076
2018-06-02T11:08:11.993Z,3152
2018-06-02T11:09:26.679Z,3376
2018-06-02T11:11:12.080Z,3924
2018-06-02T11:12:27.057Z,4168
2018-06-02T11:13:12.422Z,4292
2018-06-02T11:14:12.441Z,4540
2018-06-02T11:15:12.202Z,4772
2018-06-02T11:16:12.526Z,4844
2018-06-02T11:17:12.247Z,4884
2018-06-02T11:18:12.560Z,4948
2018-06-02T11:19:12.298Z,4992
2018-06-02T11:20:27.016Z,5096
2018-06-02T11:21:26.757Z,5092
2018-06-02T11:22:12.700Z,4960
2018-06-02T11:23:12.183Z,4688
2018-06-02T11:24:12.723Z,4320
2018-06-02T11:25:27.403Z,3888
2018-06-02T11:26:12.499Z,3576
2018-06-02T11:27:12.828Z,3288
2018-06-02T11:28:12.815Z,3120
2018-06-02T11:29:12.886Z,3076
2018-06-02T11:30:12.632Z,3096
2018-06-02T11:31:12.948Z,3136
2018-06-02T11:32:12.925Z,3176
2018-06-02T11:33:27.614Z,3284
2018-06-02T11:34:13.005Z,3392
2018-06-02T11:35:12.781Z,3544
2018-06-02T11:36:12.814Z,3656
2018-06-02T11:37:12.544Z,3716
2018-06-02T11:38:13.139Z,3784
2018-06-02T11:39:13.117Z,3948
2018-06-02T11:40:13.181Z,4044
2018-06-02T11:41:27.831Z,4204
2018-06-02T11:42:13.245Z,4244
2018-06-02T11:43:13.250Z,4376
2018-06-02T11:44:13.635Z,4460
2018-06-02T11:45:13.329Z,4576
2018-06-02T11:46:13.399Z,4704
2018-06-02T11:47:13.088Z,4800
2018-06-02T11:48:13.408Z,4872
2018-06-02T11:49:13.401Z,4968
2018-06-02T11:50:28.118Z,5012
2018-06-02T11:51:13.192Z,4984
2018-06-02T11:52:13.538Z,4868
2018-06-02T11:53:13.540Z,4816
2018-06-02T11:54:13.301Z,4876
2018-06-02T11:56:28.260Z,5204
2018-06-02T11:57:13.670Z,5228
2018-06-02T11:58:13.398Z,5236
2018-06-02T11:59:13.462Z,5252
2018-06-02T12:00:13.729Z,5400
2018-06-02T12:01:13.914Z,5592
2018-06-02T12:02:13.505Z,5752
2018-06-02T12:03:28.452Z,5920
2018-06-02T12:04:13.855Z,5996
2018-06-02T12:05:13.601Z,6236
2018-06-02T12:06:28.567Z,6672
2018-06-02T12:07:13.925Z,6996
2018-06-02T12:08:13.955Z,7212
2018-06-02T12:09:13.955Z,7228
2018-06-02T12:10:14.017Z,7212
2018-06-02T12:11:14.024Z,7092
2018-06-02T12:12:14.055Z,6944
2018-06-02T12:14:14.139Z,7068
2018-06-02T12:15:14.122Z,7196
2018-06-02T12:16:14.183Z,7172
2018-06-02T12:17:28.839Z,7248
2018-06-02T12:18:14.227Z,7408
2018-06-02T12:19:13.960Z,7288
2018-06-02T12:20:14.252Z,6868
2018-06-02T12:21:14.321Z,6448
2018-06-02T12:22:28.449Z,6012
2018-06-02T12:23:13.845Z,5692
2018-06-02T12:24:14.381Z,5484
2018-06-02T12:25:14.413Z,5620
2018-06-02T12:26:14.420Z,5820
2018-06-02T12:27:29.097Z,6240
2018-06-02T12:28:29.254Z,6620
2018-06-02T12:29:13.718Z,6944
2018-06-02T12:30:14.296Z,7412
2018-06-02T12:31:14.303Z,7744
2018-06-02T12:32:14.354Z,7900
2018-06-02T12:33:29.259Z,7924
2018-06-02T12:34:14.635Z,7912
2018-06-02T12:36:14.533Z,7968
2018-06-02T12:37:14.464Z,7892
2018-06-02T12:38:14.517Z,7804
2018-06-02T12:39:14.765Z,7700
2018-06-02T12:40:14.963Z,7600
2018-06-02T12:41:29.284Z,7652
2018-06-02T12:42:14.608Z,7728
2018-06-02T12:43:14.873Z,7956
2018-06-02T12:44:29.290Z,8256
2018-06-02T12:45:14.436Z,8340
2018-06-02T12:46:14.431Z,8448
2018-06-02T12:47:29.666Z,8632
2018-06-02T12:48:15.036Z,8728
2018-06-02T12:50:29.835Z,8916
2018-06-02T12:51:15.078Z,8980
2018-06-02T12:52:15.153Z,9132
2018-06-02T12:53:29.801Z,9360
2018-06-02T12:55:29.879Z,9768
2018-06-02T12:56:14.958Z,9900
2018-06-02T12:57:15.268Z,10028
2018-06-02T12:58:15.268Z,10092
2018-06-02T12:59:14.814Z,10096
2018-06-02T13:00:29.724Z,10104
2018-06-02T13:01:15.394Z,10156
2018-06-02T13:02:15.151Z,10152
2018-06-02T13:03:15.437Z,10152
2018-06-02T13:04:15.438Z,10104
2018-06-02T13:05:15.502Z,10052
2018-06-02T13:06:15.526Z,10040
2018-06-02T13:07:15.531Z,10004
2018-06-02T13:08:15.559Z,9948
2018-06-02T13:09:15.614Z,9908
2018-06-02T13:10:15.622Z,9904
2018-06-02T13:11:30.318Z,9928
2018-06-02T13:12:15.661Z,9944
2018-06-02T13:13:15.461Z,9940
2018-06-02T13:14:15.451Z,9972
2018-06-02T13:15:15.747Z,10076
2018-06-02T13:16:30.434Z,10160
2018-06-02T13:17:30.469Z,10124
2018-06-02T13:18:15.607Z,10044
2018-06-02T13:19:30.244Z,9840
2018-06-02T13:20:15.648Z,9672
2018-06-02T13:21:30.630Z,9404
2018-06-02T13:22:15.930Z,9248
2018-06-02T13:24:15.999Z,8788
2018-06-02T13:25:30.699Z,8468
2018-06-02T13:26:15.525Z,8320
2018-06-02T13:28:16.096Z,7980
2018-06-02T13:29:16.117Z,7824
2018-06-02T13:30:16.195Z,7692
2018-06-02T13:31:30.831Z,7560
2018-06-02T13:32:16.249Z,7504
2018-06-02T13:33:16.265Z,7448
2018-06-02T13:34:16.003Z,7376
2018-06-02T13:35:16.066Z,7332
2018-06-02T13:36:16.109Z,7284
2018-06-02T13:37:16.359Z,7240
2018-06-02T13:38:16.384Z,7168
2018-06-02T13:39:16.396Z,7124
2018-06-02T13:40:16.460Z,7092
2018-06-02T13:41:16.469Z,7040
2018-06-02T13:42:16.628Z,7016
2018-06-02T13:43:16.624Z,7028
2018-06-02T13:44:16.569Z,7044
2018-06-02T13:45:31.059Z,7052
2018-06-02T13:46:16.694Z,7048
2018-06-02T13:47:16.625Z,7072
2018-06-02T13:48:16.685Z,7092
2018-06-02T13:50:16.699Z,7168
2018-06-02T13:51:16.770Z,7200
2018-06-02T13:52:16.757Z,7232
2018-06-02T13:53:16.805Z,7244
2018-06-02T13:54:16.813Z,7284
2018-06-02T13:56:16.908Z,7376
2018-06-02T13:57:16.891Z,7528
2018-06-02T13:58:16.689Z,7708
2018-06-02T13:59:16.972Z,7824
2018-06-02T14:00:31.634Z,8040
2018-06-02T14:01:16.779Z,8144
2018-06-02T14:02:17.027Z,8208
2018-06-02T14:03:31.724Z,8444
2018-06-02T14:04:17.109Z,8280
2018-06-02T14:05:16.873Z,9032
2018-06-02T14:06:17.185Z,9232
2018-06-02T14:09:31.884Z,10444
2018-06-02T14:10:17.239Z,10408
2018-06-02T14:11:17.321Z,10584
2018-06-02T14:12:17.305Z,10484
2018-06-02T14:13:17.354Z,10264
2018-06-02T14:14:17.391Z,8836
2018-06-02T14:15:17.381Z,8764
2018-06-02T14:16:17.458Z,8588
2018-06-02T14:17:17.203Z,8572
2018-06-02T14:18:17.493Z,8656
2018-06-02T14:19:32.150Z,8684